メインページ
METAR-TAF:

METAR-TAF

空港 :

アンカラ-エセンボーア, トルコ

エセンボーア国際空港

緯度: 40-07N, 経度: 032-59E, 海抜: 953m

現時点の気象観測

当レポートは30分前の01:20(UTC)に作成
変向風 3kt
気温 4°C
湿度 87%
気圧 998 hPa
視程10km以上
高度2500ftの千切れ雲あり
高度8000ftの千切れ雲あり
小雨

METAR: LTAC 180120Z VRB03KT 9999 -RA BKN025 BKN080 04/02 Q0998 NOSIG RMK RWY21L VRB01KT RWY03L 05003KT 030V090 RWY21R VRB02KT

時間: 04:50 (01:50 UTC)

予報

当レポートは3時間10分前の22:40(UTC)に作成
予報は18日の 00時(UTC)から 18日の 24時(UTC)まで有効
南/南西の風 9kt
視程: 8000m
高度3500ftの千切れ雲あり
高度9000ftの千切れ雲あり
小雨
18日の 08時(UTC)から 18日の 11時(UTC)まで徐々に
西の風 12kt
弱いにわか雪
18日の 11時(UTC)から 18日の 15時(UTC)まで一時的に
西/北西の風 15kt、最大30ktの突風を伴う
視程: 2000m
高度2500ftの千切れ雲あり
高度8000ftの千切れ雲あり
にわか雪
18日の 16時(UTC)から 18日の 18時(UTC)まで徐々に
高度4000ftの雲は散在している
高度10000ftの千切れ雲あり

TAF: LTAC 172240Z 1800/1824 20009KT 8000 -RA BKN035 BKN090 BECMG 1808/1811 28012KT -SHSN TEMPO 1811/1815 29015G30KT 2000 SHSN BKN025 BKN080 BECMG 1816/1818 SCT040 BKN100

4,000以上の空港の気象観測と天気予報(METAR報とTAF報)

利用可能な観測所は地図上に黄色い丸と赤い丸で示す。

丸の上にカーソルを重ねると観測所名を参照できる。

次にクリックすると気象観測と天気予報を参照できる。

マップの切り替え:黒色「×」印の緑ボタンをクリックして拡大、「-」印の緑ボタンをクリックして縮小、緑色の三角印をクリックして隣りの地図に切り替え


METAR-TAF: